Time;durP1;ratioP1;P1;durP2;ratioP2;P2;SDS_P1;SDS_P2;PMS_P1;PMS_P2;Temp;Humidity;BMP_temperature;BMP_pressure;BME280_temperature;BME280_humidity;BME280_pressure;Samples;Min_cycle;Max_cycle;Signal;HPM_P1;HPM_P2
2023/04/08 00:00:33;;;;;;;62.35;57.80;;;3.90;99.90;;;;;;5240309;28;20040;-73
2023/04/08 00:03:04;;;;;;;61.90;57.60;;;4.10;99.90;;;;;;5226680;28;20112;-72
2023/04/08 00:05:34;;;;;;;58.05;53.95;;;3.80;99.90;;;;;;5226451;28;20040;-72
2023/04/08 00:08:05;;;;;;;62.38;58.03;;;3.80;99.90;;;;;;5226456;28;20018;-72
2023/04/08 00:10:36;;;;;;;59.10;54.95;;;3.80;99.90;;;;;;5226558;28;20100;-72
2023/04/08 00:13:07;;;;;;;56.72;52.83;;;3.80;99.90;;;;;;5226490;28;20024;-72
2023/04/08 00:15:40;;;;;;;56.08;52.53;;;3.80;99.90;;;;;;5226593;28;20098;-72
2023/04/08 00:18:14;;;;;;;61.05;56.88;;;3.80;99.90;;;;;;5226642;28;20021;-72
2023/04/08 00:20:45;;;;;;;58.90;54.88;;;3.80;99.90;;;;;;5226397;28;20033;-72
2023/04/08 00:23:16;;;;;;;57.67;53.67;;;3.70;99.90;;;;;;5226312;28;20032;-71
2023/04/08 00:25:47;;;;;;;62.00;57.70;;;3.80;99.90;;;;;;5225023;28;20377;-72
2023/04/08 00:28:18;;;;;;;60.92;56.70;;;3.50;99.90;;;;;;5226361;28;20033;-72
2023/04/08 00:30:48;;;;;;;63.67;59.33;;;3.50;99.90;;;;;;5227609;28;20085;-73
2023/04/08 00:33:19;;;;;;;62.17;57.88;;;3.50;99.90;;;;;;5234931;28;20041;-72
2023/04/08 00:35:51;;;;;;;62.40;57.92;;;3.50;99.90;;;;;;5226344;28;20096;-72
2023/04/08 00:38:21;;;;;;;62.45;58.25;;;3.50;99.90;;;;;;5226223;28;20025;-72
2023/04/08 00:40:52;;;;;;;61.20;57.10;;;3.70;99.90;;;;;;5235515;28;20486;-72
2023/04/08 00:43:23;;;;;;;59.83;55.92;;;3.50;99.90;;;;;;5246806;28;20067;-70
2023/04/08 00:45:54;;;;;;;67.30;62.90;;;3.20;99.90;;;;;;5246894;28;20031;-73
2023/04/08 00:48:25;;;;;;;72.30;66.88;;;3.40;99.90;;;;;;5246949;28;20028;-67
2023/04/08 00:50:57;;;;;;;62.85;58.30;;;3.70;99.90;;;;;;5246972;28;20028;-71
2023/04/08 00:53:30;;;;;;;66.57;62.10;;;3.70;99.90;;;;;;5246740;28;20384;-72
2023/04/08 00:56:01;;;;;;;60.45;56.22;;;3.70;99.90;;;;;;5247012;28;20107;-71
2023/04/08 00:58:32;;;;;;;66.93;62.63;;;3.60;99.90;;;;;;5250803;28;20531;-72
2023/04/08 01:01:17;;;;;;;63.83;59.80;;;4.10;99.90;;;;;;5250689;28;20422;-72
2023/04/08 01:04:04;;;;;;;58.75;54.88;;;3.80;99.90;;;;;;5250478;28;20058;-72
2023/04/08 01:06:42;;;;;;;62.00;58.00;;;4.20;99.90;;;;;;5250655;28;20428;-72
2023/04/08 01:09:17;;;;;;;66.15;61.90;;;4.20;99.90;;;;;;5250775;28;20525;-72
2023/04/08 01:11:50;;;;;;;58.50;54.80;;;4.10;99.90;;;;;;5250483;28;20021;-72
2023/04/08 01:14:25;;;;;;;56.42;52.80;;;4.30;99.90;;;;;;5250356;28;20064;-71
2023/04/08 01:16:58;;;;;;;63.35;59.05;;;3.90;99.90;;;;;;5250421;28;20062;-72
2023/04/08 01:19:36;;;;;;;59.90;56.10;;;4.10;99.90;;;;;;5250231;28;20036;-72
2023/04/08 01:22:26;;;;;;;58.08;54.17;;;4.20;99.90;;;;;;5250584;28;20124;-72
2023/04/08 01:25:26;;;;;;;63.05;59.03;;;4.10;99.90;;;;;;5250452;28;20407;-72
2023/04/08 01:28:03;;;;;;;56.42;52.70;;;4.10;99.90;;;;;;5250380;28;20411;-72
2023/04/08 01:30:36;;;;;;;53.15;49.70;;;4.60;99.90;;;;;;5250227;28;20037;-72
2023/04/08 01:33:11;;;;;;;54.53;50.88;;;4.60;99.90;;;;;;5249960;28;20036;-72
2023/04/08 01:35:43;;;;;;;49.83;46.58;;;4.50;99.90;;;;;;5250322;28;20033;-71
2023/04/08 01:38:16;;;;;;;60.13;56.33;;;4.50;99.90;;;;;;5250174;28;20032;-72
2023/04/08 01:40:50;;;;;;;59.45;55.67;;;4.40;99.90;;;;;;5248710;28;20530;-72
2023/04/08 01:43:21;;;;;;;61.88;57.63;;;4.20;99.90;;;;;;5231310;28;20029;-72
2023/04/08 01:45:56;;;;;;;54.50;50.75;;;4.20;99.90;;;;;;5229434;28;20029;-71
2023/04/08 01:48:28;;;;;;;57.38;53.58;;;4.00;99.90;;;;;;5229395;28;20605;-71
2023/04/08 01:51:00;;;;;;;60.53;56.65;;;4.50;99.90;;;;;;5229103;28;20040;-72
2023/04/08 01:53:31;;;;;;;64.53;60.47;;;4.50;99.90;;;;;;5229339;28;20048;-72
2023/04/08 01:56:10;;;;;;;53.20;49.80;;;4.30;99.90;;;;;;5229026;28;20051;-72
2023/04/08 01:58:51;;;;;;;58.70;55.03;;;4.10;99.90;;;;;;5228947;28;20040;-72
2023/04/08 02:01:24;;;;;;;59.78;55.97;;;4.40;99.90;;;;;;5228724;28;20064;-72
2023/04/08 02:03:56;;;;;;;55.35;51.83;;;4.40;99.90;;;;;;5228594;28;20553;-71
2023/04/08 02:06:28;;;;;;;58.08;54.53;;;4.30;99.90;;;;;;5228717;28;20055;-71
2023/04/08 02:09:00;;;;;;;58.10;54.50;;;4.20;99.90;;;;;;5227897;28;20036;-73
2023/04/08 02:11:31;;;;;;;50.55;46.97;;;4.40;99.90;;;;;;5228490;28;20039;-72
2023/04/08 02:14:02;;;;;;;55.13;51.58;;;4.50;99.90;;;;;;5228541;28;20025;-72
2023/04/08 02:16:41;;;;;;;52.03;48.67;;;4.60;99.90;;;;;;5230988;28;20481;-71
2023/04/08 02:19:20;;;;;;;54.70;51.13;;;4.40;99.90;;;;;;5237340;28;20461;-71
2023/04/08 02:21:58;;;;;;;57.38;53.63;;;4.50;99.90;;;;;;5228400;28;20103;-72
2023/04/08 02:24:31;;;;;;;55.08;51.55;;;4.60;99.90;;;;;;5228525;28;20167;-71
2023/04/08 02:27:03;;;;;;;58.50;54.80;;;4.40;99.90;;;;;;5228344;28;20095;-72
2023/04/08 02:29:36;;;;;;;56.10;52.53;;;4.40;99.90;;;;;;5228265;28;20025;-71
2023/04/08 02:32:09;;;;;;;54.28;50.70;;;4.50;99.90;;;;;;5228263;28;20017;-72
2023/04/08 02:34:42;;;;;;;59.75;55.83;;;4.50;99.90;;;;;;5227984;28;20057;-72
2023/04/08 02:37:13;;;;;;;52.08;48.72;;;4.70;99.90;;;;;;5242025;28;20024;-71
2023/04/08 02:39:44;;;;;;;57.70;53.95;;;4.70;99.90;;;;;;5247559;28;20380;-72
2023/04/08 02:42:14;;;;;;;57.92;54.17;;;4.60;99.90;;;;;;5248920;28;20040;-72
2023/04/08 02:44:45;;;;;;;53.45;50.13;;;4.40;99.90;;;;;;5248731;28;20040;-72
2023/04/08 02:47:16;;;;;;;55.35;51.70;;;4.80;99.90;;;;;;5248841;28;20361;-72
2023/04/08 02:49:47;;;;;;;59.47;55.78;;;4.50;99.90;;;;;;5248755;28;20116;-72
2023/04/08 02:52:19;;;;;;;55.03;51.13;;;4.80;99.90;;;;;;5248678;28;20082;-72
2023/04/08 02:54:50;;;;;;;54.17;50.55;;;4.70;99.90;;;;;;5248686;28;20017;-72
2023/04/08 02:57:20;;;;;;;56.42;52.90;;;4.60;99.90;;;;;;5240059;28;20035;-72
2023/04/08 02:59:51;;;;;;;60.50;56.70;;;4.80;99.90;;;;;;5227760;28;20103;-73
2023/04/08 03:02:22;;;;;;;60.25;56.30;;;5.00;99.90;;;;;;5227483;28;20041;-72
2023/04/08 03:04:53;;;;;;;62.25;58.15;;;5.20;99.90;;;;;;5227514;28;20073;-72
2023/04/08 03:07:24;;;;;;;64.88;60.05;;;5.20;99.90;;;;;;5227576;28;20554;-67
2023/04/08 03:09:55;;;;;;;65.30;61.03;;;5.20;99.90;;;;;;5227464;28;20416;-72
2023/04/08 03:12:26;;;;;;;66.45;62.30;;;5.10;99.90;;;;;;5227493;28;20025;-72
2023/04/08 03:14:57;;;;;;;73.00;67.82;;;5.20;99.90;;;;;;5227519;28;20100;-72
2023/04/08 03:17:31;;;;;;;74.65;69.35;;;5.30;99.90;;;;;;5227334;28;20109;-72
2023/04/08 03:20:05;;;;;;;75.88;70.93;;;5.20;99.90;;;;;;5226392;28;20761;-72
2023/04/08 03:22:36;;;;;;;70.80;66.07;;;5.40;99.90;;;;;;5227498;28;20056;-72
2023/04/08 03:25:08;;;;;;;79.70;74.10;;;5.50;99.90;;;;;;5227225;28;20107;-72
2023/04/08 03:27:38;;;;;;;75.03;69.90;;;5.20;99.90;;;;;;5231785;28;20047;-72
2023/04/08 03:30:09;;;;;;;73.85;68.90;;;5.40;99.90;;;;;;5247881;28;20025;-72
2023/04/08 03:32:40;;;;;;;69.72;64.82;;;5.50;99.90;;;;;;5247494;28;20028;-72
2023/04/08 03:35:11;;;;;;;73.90;69.03;;;5.60;99.90;;;;;;5247529;28;20404;-72
2023/04/08 03:37:42;;;;;;;71.85;67.00;;;5.60;99.90;;;;;;5247641;28;20040;-69
2023/04/08 03:40:13;;;;;;;74.07;69.10;;;5.60;99.90;;;;;;5246569;28;20562;-72
2023/04/08 03:42:44;;;;;;;77.60;72.55;;;6.00;99.90;;;;;;5247711;28;20025;-67
2023/04/08 03:45:15;;;;;;;80.90;75.50;;;5.90;99.90;;;;;;5247449;28;20111;-73
2023/04/08 03:47:45;;;;;;;91.15;84.97;;;5.90;99.90;;;;;;5247560;28;20055;-72
2023/04/08 03:50:16;;;;;;;80.50;74.63;;;5.90;99.90;;;;;;5241186;28;20461;-73
2023/04/08 03:52:47;;;;;;;89.18;83.00;;;6.00;99.90;;;;;;5232358;28;20035;-73
2023/04/08 03:55:18;;;;;;;89.05;81.78;;;6.20;99.90;;;;;;5241916;28;20032;-70
2023/04/08 03:57:49;;;;;;;88.30;80.93;;;6.20;99.90;;;;;;5239502;28;20032;-72
2023/04/08 04:00:20;;;;;;;93.10;86.03;;;6.20;99.90;;;;;;5226703;28;20028;-72
2023/04/08 04:02:51;;;;;;;94.32;87.50;;;6.40;99.90;;;;;;5226368;28;20029;-72
2023/04/08 04:05:22;;;;;;;93.45;86.15;;;6.40;99.90;;;;;;5226568;28;20677;-73
2023/04/08 04:07:53;;;;;;;88.82;81.35;;;6.70;99.90;;;;;;5241223;28;20031;-72
2023/04/08 04:10:23;;;;;;;111.18;100.80;;;6.90;99.90;;;;;;5247254;28;20037;-73
2023/04/08 04:12:54;;;;;;;126.28;113.20;;;6.90;99.90;;;;;;5247213;28;20021;-73
2023/04/08 04:15:25;;;;;;;118.28;106.88;;;6.90;99.90;;;;;;5233842;28;20029;-71
2023/04/08 04:17:56;;;;;;;104.22;94.55;;;7.00;99.90;;;;;;5245564;28;20522;-72
2023/04/08 04:20:29;;;;;;;102.38;93.32;;;7.20;99.90;;;;;;5246669;28;20032;-72
2023/04/08 04:22:59;;;;;;;100.45;91.65;;;7.20;99.90;;;;;;5247081;28;20063;-73
2023/04/08 04:25:30;;;;;;;102.43;93.03;;;7.30;99.90;;;;;;5247020;28;20840;-70
2023/04/08 04:28:02;;;;;;;103.35;94.35;;;7.40;99.90;;;;;;5246998;28;20060;-73
2023/04/08 04:30:35;;;;;;;89.03;81.70;;;7.40;99.90;;;;;;5246855;28;20059;-72
2023/04/08 04:33:06;;;;;;;87.40;80.65;;;7.50;99.90;;;;;;5250394;28;20029;-73
2023/04/08 04:35:38;;;;;;;84.18;77.10;;;7.70;99.90;;;;;;5251269;28;20111;-70
2023/04/08 04:38:11;;;;;;;92.05;84.45;;;7.70;99.90;;;;;;5251082;28;20024;-73
2023/04/08 04:40:43;;;;;;;85.28;78.60;;;7.70;99.90;;;;;;5251096;28;20030;-69
2023/04/08 04:43:14;;;;;;;86.32;79.40;;;7.80;99.90;;;;;;5251034;28;20025;-67
2023/04/08 04:45:45;;;;;;;83.88;77.38;;;7.90;99.90;;;;;;5250947;28;20476;-68
2023/04/08 04:48:16;;;;;;;83.03;76.63;;;8.00;99.90;;;;;;5250861;28;20024;-67
2023/04/08 04:50:57;;;;;;;77.07;71.43;;;8.00;99.90;;;;;;5250874;28;20036;-68
2023/04/08 04:53:31;;;;;;;72.25;67.10;;;8.10;99.90;;;;;;5250780;28;20032;-71
2023/04/08 04:56:02;;;;;;;73.53;68.03;;;8.20;99.90;;;;;;5250782;28;20032;-73
2023/04/08 04:58:33;;;;;;;75.22;69.78;;;8.30;99.90;;;;;;5250622;28;20074;-71
2023/04/08 05:01:04;;;;;;;69.35;64.15;;;8.20;99.90;;;;;;5250970;28;20028;-69
2023/04/08 05:03:35;;;;;;;70.57;65.40;;;8.30;99.90;;;;;;5250326;28;20041;-73
2023/04/08 05:06:06;;;;;;;74.88;69.65;;;8.40;99.90;;;;;;5250718;28;20372;-67
2023/04/08 05:08:37;;;;;;;76.30;70.95;;;8.30;99.90;;;;;;5250617;28;20483;-73
2023/04/08 05:11:10;;;;;;;66.18;61.42;;;8.50;99.90;;;;;;5250659;28;20021;-73
2023/04/08 05:13:41;;;;;;;70.00;65.03;;;8.50;99.90;;;;;;5250514;28;20031;-73
2023/04/08 05:16:12;;;;;;;64.35;59.45;;;8.50;99.90;;;;;;5247113;28;20376;-72
2023/04/08 05:18:44;;;;;;;64.68;59.65;;;8.70;99.90;;;;;;5241553;28;20030;-69
2023/04/08 05:21:15;;;;;;;71.78;66.05;;;8.70;99.90;;;;;;5250500;28;20016;-70
2023/04/08 05:23:45;;;;;;;75.45;69.05;;;8.80;99.90;;;;;;5250216;28;20441;-73
2023/04/08 05:26:16;;;;;;;74.07;67.43;;;8.70;99.90;;;;;;5250342;28;20052;-71
2023/04/08 05:28:48;;;;;;;73.22;66.95;;;8.80;99.90;;;;;;5250256;28;20054;-72
2023/04/08 05:31:19;;;;;;;67.72;61.92;;;8.70;99.90;;;;;;5250172;28;20100;-73
2023/04/08 05:33:50;;;;;;;76.25;69.68;;;8.80;99.90;;;;;;5249842;28;20404;-72
2023/04/08 05:36:21;;;;;;;66.63;61.05;;;9.00;99.90;;;;;;5250083;28;20025;-73
2023/04/08 05:38:51;;;;;;;62.63;58.00;;;9.00;99.90;;;;;;5249962;28;20031;-73
2023/04/08 05:41:22;;;;;;;60.97;56.47;;;9.20;99.90;;;;;;5250097;28;20440;-73
2023/04/08 05:43:53;;;;;;;57.10;53.42;;;9.30;99.90;;;;;;5248785;28;20483;-72
2023/04/08 05:46:24;;;;;;;59.67;55.63;;;9.20;99.90;;;;;;5250016;28;20028;-68
2023/04/08 05:48:55;;;;;;;57.25;53.53;;;9.30;99.90;;;;;;5249852;28;20028;-73
2023/04/08 05:51:26;;;;;;;58.15;54.50;;;9.30;99.90;;;;;;5249821;28;20039;-73
2023/04/08 05:53:56;;;;;;;55.08;51.47;;;9.30;99.90;;;;;;5249856;28;20021;-68
2023/04/08 05:56:27;;;;;;;57.13;52.90;;;9.40;99.90;;;;;;5249795;28;20123;-73
2023/04/08 05:58:58;;;;;;;55.38;51.60;;;9.40;99.90;;;;;;5249720;28;20033;-68
2023/04/08 06:01:29;;;;;;;51.50;48.22;;;9.70;99.90;;;;;;5239242;28;20120;-68
2023/04/08 06:04:00;;;;;;;57.83;54.15;;;9.50;99.90;;;;;;5248581;28;20479;-67
2023/04/08 06:06:31;;;;;;;55.30;51.92;;;9.50;99.90;;;;;;5229643;28;20048;-72
2023/04/08 06:09:02;;;;;;;48.95;45.88;;;9.80;99.90;;;;;;5228859;28;20010;-72
2023/04/08 06:11:32;;;;;;;52.80;49.50;;;9.70;99.90;;;;;;5229774;28;20112;-73
2023/04/08 06:14:03;;;;;;;52.83;49.60;;;9.80;99.90;;;;;;5249545;28;20020;-68
2023/04/08 06:16:34;;;;;;;48.53;45.38;;;9.80;99.90;;;;;;5236184;28;20033;-67
2023/04/08 06:19:05;;;;;;;50.38;47.30;;;9.80;99.90;;;;;;5228715;28;20017;-72
2023/04/08 06:21:36;;;;;;;49.70;46.60;;;9.90;99.90;;;;;;5228589;28;20024;-72
2023/04/08 06:24:07;;;;;;;48.70;45.75;;;10.30;99.90;;;;;;5228361;28;20083;-67
2023/04/08 06:26:37;;;;;;;47.47;44.47;;;10.40;99.90;;;;;;5228572;28;20055;-67
2023/04/08 06:29:08;;;;;;;49.42;46.20;;;9.90;99.90;;;;;;5228492;28;20104;-68
2023/04/08 06:31:40;;;;;;;46.60;43.70;;;10.20;99.90;;;;;;5228338;28;20032;-68
2023/04/08 06:34:11;;;;;;;47.65;44.65;;;10.50;99.90;;;;;;5228147;28;20052;-72
2023/04/08 06:36:41;;;;;;;48.38;45.50;;;10.50;99.90;;;;;;5228311;28;20034;-73
2023/04/08 06:39:13;;;;;;;47.55;44.60;;;10.50;99.90;;;;;;5228099;28;20074;-70
2023/04/08 06:41:44;;;;;;;47.72;44.78;;;10.60;99.90;;;;;;5228182;28;20052;-68
2023/04/08 06:44:15;;;;;;;45.22;42.33;;;11.10;99.90;;;;;;5228129;28;20460;-67
2023/04/08 06:46:46;;;;;;;47.75;44.72;;;11.10;99.90;;;;;;5228015;28;20021;-71
2023/04/08 06:49:17;;;;;;;49.40;46.28;;;10.90;99.90;;;;;;5227894;28;20468;-72
2023/04/08 06:51:48;;;;;;;47.42;44.60;;;10.80;99.90;;;;;;5227886;28;20059;-73
2023/04/08 06:54:19;;;;;;;48.15;45.25;;;10.90;99.90;;;;;;5235053;28;20028;-73
2023/04/08 06:56:50;;;;;;;52.22;49.15;;;10.70;99.90;;;;;;5248559;28;20021;-72
2023/04/08 06:59:20;;;;;;;50.08;47.20;;;10.70;99.90;;;;;;5248520;28;20023;-73
2023/04/08 07:01:51;;;;;;;51.78;48.72;;;11.00;99.90;;;;;;5248373;28;20028;-68
2023/04/08 07:04:22;;;;;;;52.08;48.90;;;11.30;99.90;;;;;;5247945;28;20377;-71
2023/04/08 07:06:53;;;;;;;60.83;57.38;;;11.80;99.90;;;;;;5248216;28;20515;-72
2023/04/08 07:09:24;;;;;;;60.25;56.85;;;11.90;99.90;;;;;;5241573;28;20036;-67
2023/04/08 07:11:57;;;;;;;61.63;57.95;;;11.80;99.90;;;;;;5232029;28;20060;-73
2023/04/08 07:14:28;;;;;;;64.95;61.22;;;12.00;99.90;;;;;;5227367;28;20083;-67
2023/04/08 07:16:59;;;;;;;61.58;58.08;;;12.30;99.90;;;;;;5227428;28;20063;-73
2023/04/08 07:19:30;;;;;;;67.47;63.38;;;12.10;99.90;;;;;;5227393;28;20078;-66
2023/04/08 07:22:01;;;;;;;63.28;59.78;;;12.20;99.90;;;;;;5227298;28;20029;-73
2023/04/08 07:24:33;;;;;;;61.85;58.25;;;12.40;99.90;;;;;;5227162;28;20647;-66
2023/04/08 07:27:04;;;;;;;66.80;63.03;;;12.20;99.90;;;;;;5227195;28;20020;-71
2023/04/08 07:29:34;;;;;;;67.38;63.67;;;12.20;99.90;;;;;;5227154;28;20021;-75
2023/04/08 07:32:06;;;;;;;68.88;64.90;;;11.70;99.90;;;;;;5227342;28;20491;-71
2023/04/08 07:34:37;;;;;;;62.28;58.67;;;12.20;99.90;;;;;;5227100;28;20056;-72
2023/04/08 07:37:08;;;;;;;67.07;63.30;;;12.50;99.90;;;;;;5227186;28;20075;-72
2023/04/08 07:39:39;;;;;;;64.55;60.92;;;12.60;99.90;;;;;;5232704;28;20106;-67
2023/04/08 07:42:19;;;;;;;70.57;66.55;;;12.20;99.90;;;;;;5241392;28;20077;-65
2023/04/08 07:44:51;;;;;;;71.03;66.88;;;11.90;99.90;;;;;;5238075;28;20037;-72
2023/04/08 07:47:22;;;;;;;70.55;66.60;;;12.30;99.90;;;;;;5228664;28;20040;-71
2023/04/08 07:49:54;;;;;;;72.53;68.38;;;12.70;99.90;;;;;;5234920;28;20373;-67
2023/04/08 07:52:25;;;;;;;70.95;66.95;;;12.60;99.90;;;;;;5244747;28;20028;-71
2023/04/08 07:54:56;;;;;;;68.35;64.47;;;12.70;99.90;;;;;;5239336;28;20372;-72
2023/04/08 07:57:27;;;;;;;75.28;71.07;;;12.50;99.90;;;;;;5247080;28;20032;-72
2023/04/08 07:59:57;;;;;;;80.72;75.18;;;11.80;99.90;;;;;;5247337;28;20056;-66
2023/04/08 08:02:28;;;;;;;75.13;70.63;;;12.00;99.90;;;;;;5238619;28;20496;-68
2023/04/08 08:05:02;;;;;;;73.55;68.75;;;13.00;99.90;;;;;;5226485;28;20049;-74
2023/04/08 08:07:33;;;;;;;66.32;62.15;;;13.00;99.90;;;;;;5226064;28;20033;-73
2023/04/08 08:10:04;;;;;;;61.00;57.50;;;13.10;99.90;;;;;;5226715;28;20087;-72
2023/04/08 08:12:35;;;;;;;65.63;61.88;;;12.20;99.90;;;;;;5226362;28;20021;-72
2023/04/08 08:15:06;;;;;;;66.75;62.92;;;12.90;99.90;;;;;;5225348;28;20025;-70
2023/04/08 08:17:37;;;;;;;60.78;57.25;;;13.10;99.90;;;;;;5226393;28;20362;-73
2023/04/08 08:20:09;;;;;;;64.85;61.00;;;12.90;99.90;;;;;;5226437;28;20029;-66
2023/04/08 08:22:40;;;;;;;66.30;62.38;;;12.60;99.90;;;;;;5226445;28;20519;-73
2023/04/08 08:25:10;;;;;;;66.63;62.92;;;12.40;99.90;;;;;;5226387;28;20041;-68
2023/04/08 08:27:41;;;;;;;63.17;59.67;;;12.20;99.90;;;;;;5226267;28;20029;-73
2023/04/08 08:30:12;;;;;;;58.85;55.55;;;13.10;99.90;;;;;;5226162;28;20098;-71
2023/04/08 08:32:43;;;;;;;87.80;82.35;;;12.70;99.90;;;;;;5240919;28;20039;-71
2023/04/08 08:35:14;;;;;;;54.13;51.03;;;13.30;99.90;;;;;;5226160;28;20076;-68
2023/04/08 08:37:45;;;;;;;51.65;48.72;;;13.30;99.90;;;;;;5226377;28;20056;-71
2023/04/08 08:40:16;;;;;;;52.40;49.38;;;13.70;99.90;;;;;;5226363;28;20017;-67
2023/04/08 08:42:51;;;;;;;55.38;51.97;;;13.50;99.90;;;;;;5226406;28;20029;-72
2023/04/08 08:45:22;;;;;;;56.40;52.60;;;13.20;99.90;;;;;;5226281;28;20033;-72
2023/04/08 08:47:53;;;;;;;50.35;47.45;;;13.00;99.90;;;;;;5226319;28;20031;-71
2023/04/08 08:50:24;;;;;;;55.65;52.53;;;12.80;99.90;;;;;;5226345;28;20033;-72
2023/04/08 08:52:55;;;;;;;49.53;46.83;;;12.90;99.90;;;;;;5226036;28;20025;-66
2023/04/08 08:55:28;;;;;;;56.97;53.67;;;12.60;99.90;;;;;;5225076;28;20115;-66
2023/04/08 08:58:02;;;;;;;56.03;52.97;;;12.50;99.90;;;;;;5226028;28;20087;-68
2023/04/08 09:00:38;;;;;;;58.90;55.70;;;13.00;99.90;;;;;;5226057;28;20028;-72
2023/04/08 09:03:28;;;;;;;57.45;54.10;;;13.40;99.90;;;;;;5226051;28;20039;-72
2023/04/08 09:06:00;;;;;;;60.60;57.15;;;12.50;99.90;;;;;;5226202;28;20049;-72
2023/04/08 09:08:33;;;;;;;61.08;57.53;;;13.30;99.90;;;;;;5226170;28;20044;-66
2023/04/08 09:11:15;;;;;;;57.17;54.10;;;13.70;99.90;;;;;;5225963;28;20062;-73
2023/04/08 09:13:46;;;;;;;54.53;51.35;;;13.10;99.90;;;;;;5226267;28;20022;-68
2023/04/08 09:16:18;;;;;;;53.67;50.65;;;13.30;99.90;;;;;;5236941;28;20162;-74
2023/04/08 09:18:49;;;;;;;50.92;47.72;;;13.60;99.90;;;;;;5249440;28;20028;-66
2023/04/08 09:21:23;;;;;;;50.28;47.45;;;13.80;99.90;;;;;;5243721;28;20373;-66
2023/04/08 09:23:54;;;;;;;49.95;47.10;;;13.70;99.90;;;;;;5235161;28;20040;-73
2023/04/08 09:26:26;;;;;;;51.25;48.38;;;13.30;99.90;;;;;;5250360;28;20028;-70
2023/04/08 09:29:05;;;;;;;53.03;50.03;;;13.50;99.90;;;;;;5250245;28;20062;-66
2023/04/08 09:31:40;;;;;;;47.55;44.83;;;13.80;99.90;;;;;;5229513;28;20460;-66
2023/04/08 09:34:16;;;;;;;47.42;44.85;;;13.70;99.90;;;;;;5229155;28;20056;-72
2023/04/08 09:36:48;;;;;;;44.08;41.45;;;13.80;99.90;;;;;;5229470;28;20388;-72
2023/04/08 09:39:19;;;;;;;45.30;42.67;;;14.70;99.90;;;;;;5229414;28;20033;-72
2023/04/08 09:41:51;;;;;;;45.85;43.25;;;13.50;99.90;;;;;;5229249;28;20033;-72
2023/04/08 09:44:27;;;;;;;46.45;43.85;;;13.90;99.90;;;;;;5229102;28;20037;-70
2023/04/08 09:47:07;;;;;;;46.65;43.92;;;14.00;99.90;;;;;;5229321;28;20041;-72
2023/04/08 09:49:45;;;;;;;45.50;42.90;;;14.30;99.90;;;;;;5242424;28;20115;-65
2023/04/08 09:52:23;;;;;;;42.97;40.40;;;14.30;99.90;;;;;;5249955;28;20357;-73
2023/04/08 09:55:03;;;;;;;42.95;40.08;;;14.80;99.90;;;;;;5249928;28;20158;-72
2023/04/08 09:57:45;;;;;;;43.92;41.35;;;14.30;99.90;;;;;;5248181;28;20028;-72
2023/04/08 10:00:17;;;;;;;45.00;42.40;;;14.30;99.90;;;;;;5242998;28;20071;-72
2023/04/08 10:02:55;;;;;;;43.58;41.05;;;13.90;99.90;;;;;;5249593;28;20071;-72
2023/04/08 10:05:26;;;;;;;43.42;41.00;;;14.10;99.90;;;;;;5249762;28;20036;-65
2023/04/08 10:07:57;;;;;;;42.10;39.78;;;14.30;99.90;;;;;;5249624;28;20023;-73
2023/04/08 10:10:29;;;;;;;45.60;43.00;;;14.00;99.90;;;;;;5249595;28;20036;-71
2023/04/08 10:13:00;;;;;;;45.92;43.25;;;14.70;99.90;;;;;;5247990;28;20657;-72
2023/04/08 10:15:33;;;;;;;40.03;37.63;;;14.70;99.90;;;;;;5240809;28;20036;-73
2023/04/08 10:18:04;;;;;;;41.45;39.05;;;14.30;99.90;;;;;;5249315;28;20016;-66
2023/04/08 10:20:35;;;;;;;40.03;37.83;;;14.90;99.90;;;;;;5238688;28;20032;-72
2023/04/08 10:23:07;;;;;;;43.80;41.17;;;14.00;99.90;;;;;;5248071;28;20344;-73
2023/04/08 10:25:40;;;;;;;40.17;37.72;;;14.80;99.90;;;;;;5249042;28;20040;-68
2023/04/08 10:28:11;;;;;;;43.10;40.25;;;14.70;99.90;;;;;;5249297;28;20024;-72
2023/04/08 10:30:46;;;;;;;37.90;35.80;;;14.70;99.90;;;;;;5247703;28;20035;-72
2023/04/08 10:33:20;;;;;;;42.50;40.10;;;15.20;99.90;;;;;;5248823;28;20598;-69
2023/04/08 10:35:59;;;;;;;42.20;39.95;;;14.60;99.90;;;;;;5248740;28;20041;-71
2023/04/08 10:38:31;;;;;;;41.92;39.42;;;13.90;99.90;;;;;;5248892;28;20019;-72
2023/04/08 10:41:01;;;;;;;43.00;40.60;;;14.60;99.90;;;;;;5245731;28;20096;-65
2023/04/08 10:43:33;;;;;;;41.95;39.45;;;14.20;99.90;;;;;;5228026;28;20108;-72
2023/04/08 10:46:05;;;;;;;43.63;41.25;;;14.90;99.90;;;;;;5227993;28;20029;-69
2023/04/08 10:48:36;;;;;;;44.63;41.95;;;15.00;99.90;;;;;;5227936;28;20147;-72
2023/04/08 10:51:06;;;;;;;48.95;46.25;;;14.70;99.90;;;;;;5228265;28;20112;-71
2023/04/08 10:53:38;;;;;;;40.63;38.28;;;15.10;99.90;;;;;;5227914;28;20036;-72
2023/04/08 10:56:17;;;;;;;39.47;37.33;;;15.30;99.90;;;;;;5227971;28;20044;-73
2023/04/08 10:58:50;;;;;;;43.33;40.72;;;15.40;99.90;;;;;;5227723;28;20405;-72
2023/04/08 11:01:21;;;;;;;40.10;37.80;;;14.50;99.90;;;;;;5228033;28;20025;-72
2023/04/08 11:03:52;;;;;;;37.25;35.15;;;15.60;99.90;;;;;;5246193;28;20025;-70
2023/04/08 11:06:23;;;;;;;40.53;38.08;;;14.10;99.90;;;;;;5248366;28;20644;-65
2023/04/08 11:08:58;;;;;;;40.40;38.20;;;14.30;99.90;;;;;;5243613;28;20052;-66
2023/04/08 11:11:30;;;;;;;42.13;39.67;;;15.00;99.90;;;;;;5247523;28;20060;-71
2023/04/08 11:14:02;;;;;;;36.03;33.88;;;14.90;99.90;;;;;;5246326;28;20495;-65
2023/04/08 11:16:34;;;;;;;35.20;33.30;;;15.40;99.90;;;;;;5243315;28;20060;-72
2023/04/08 11:19:06;;;;;;;39.70;36.83;;;15.10;99.90;;;;;;5241041;28;20032;-66
2023/04/08 11:21:37;;;;;;;37.90;35.90;;;14.80;99.90;;;;;;5246649;28;20032;-65
2023/04/08 11:24:12;;;;;;;39.40;37.30;;;15.30;99.90;;;;;;5235333;28;20037;-71
2023/04/08 11:26:43;;;;;;;39.55;37.35;;;15.00;99.90;;;;;;5227398;28;20457;-73
2023/04/08 11:29:14;;;;;;;41.33;39.03;;;15.20;99.90;;;;;;5227248;28;20079;-72
2023/04/08 11:31:48;;;;;;;45.08;42.63;;;14.60;99.90;;;;;;5228277;28;20496;-73
2023/04/08 11:34:23;;;;;;;44.58;42.17;;;14.70;99.90;;;;;;5227045;28;20049;-72
2023/04/08 11:36:57;;;;;;;48.28;45.63;;;14.60;99.90;;;;;;5227056;28;20036;-72
2023/04/08 11:39:28;;;;;;;44.78;42.10;;;14.20;99.90;;;;;;5227130;28;20060;-73
2023/04/08 11:41:59;;;;;;;43.90;41.30;;;15.10;99.90;;;;;;5227557;28;20437;-72
2023/04/08 11:44:33;;;;;;;43.15;40.75;;;14.90;99.90;;;;;;5229215;28;20029;-72
2023/04/08 11:47:04;;;;;;;43.33;40.95;;;14.60;99.90;;;;;;5226944;28;20025;-65
2023/04/08 11:49:45;;;;;;;44.65;42.30;;;14.70;99.90;;;;;;5226894;28;20021;-73
2023/04/08 11:52:16;;;;;;;44.00;41.60;;;14.50;99.90;;;;;;5226840;28;20029;-66
2023/04/08 11:54:48;;;;;;;42.72;40.30;;;15.00;99.90;;;;;;5226834;28;20159;-72
2023/04/08 11:57:28;;;;;;;41.33;38.78;;;14.90;99.90;;;;;;5226820;28;20499;-67
2023/04/08 11:59:59;;;;;;;98.93;93.60;;;14.50;99.90;;;;;;5228805;28;20595;-72
2023/04/08 12:02:30;;;;;;;47.28;44.75;;;12.80;99.90;;;;;;5238443;28;20115;-72
2023/04/08 12:05:01;;;;;;;44.65;41.95;;;14.20;99.90;;;;;;5245254;28;20126;-70
2023/04/08 12:07:32;;;;;;;40.47;38.22;;;14.60;99.90;;;;;;5247274;28;20017;-69
2023/04/08 12:10:03;;;;;;;42.80;40.40;;;14.40;99.90;;;;;;5242959;28;20514;-71
2023/04/08 12:12:34;;;;;;;43.47;41.13;;;14.10;99.90;;;;;;5231927;28;20060;-65
2023/04/08 12:15:07;;;;;;;43.40;40.97;;;13.60;99.90;;;;;;5231588;28;20057;-67
2023/04/08 12:17:37;;;;;;;39.88;37.67;;;14.40;99.90;;;;;;5230951;28;20025;-70
2023/04/08 12:20:09;;;;;;;46.30;43.80;;;14.10;99.90;;;;;;5246545;28;20036;-72
2023/04/08 12:22:40;;;;;;;43.67;41.28;;;13.50;99.90;;;;;;5247211;28;20021;-70
2023/04/08 12:25:11;;;;;;;43.78;41.45;;;13.90;99.90;;;;;;5247059;28;20037;-71
2023/04/08 12:27:42;;;;;;;42.72;40.38;;;14.50;99.90;;;;;;5246734;28;20028;-71
2023/04/08 12:30:13;;;;;;;44.30;41.80;;;14.70;99.90;;;;;;5245424;28;20029;-70
2023/04/08 12:32:45;;;;;;;45.40;42.28;;;13.60;99.90;;;;;;5232765;28;20065;-70
2023/04/08 12:35:16;;;;;;;47.33;44.67;;;14.00;99.90;;;;;;5226210;28;20481;-69
2023/04/08 12:37:46;;;;;;;42.70;40.40;;;14.40;99.90;;;;;;5226429;28;20031;-71
2023/04/08 12:40:18;;;;;;;41.28;38.97;;;14.30;99.90;;;;;;5226496;28;20484;-72
2023/04/08 12:42:48;;;;;;;43.00;40.70;;;13.50;99.90;;;;;;5226968;28;20037;-74
2023/04/08 12:45:19;;;;;;;48.60;46.00;;;13.20;99.90;;;;;;5230751;28;20037;-73
2023/04/08 12:47:50;;;;;;;48.50;45.80;;;13.90;99.90;;;;;;5225364;28;20057;-68
2023/04/08 12:50:22;;;;;;;45.25;42.70;;;13.30;99.90;;;;;;5225930;28;20028;-71
2023/04/08 12:52:53;;;;;;;43.72;41.25;;;14.30;99.90;;;;;;5227884;28;20108;-74
2023/04/08 12:55:24;;;;;;;43.88;41.45;;;14.20;99.90;;;;;;5230509;28;20166;-74